Myrtlewood, Alabama
Current Conditions -  °F | °C
As of 2:35 AM on Sunday 23 Nov 2014 (Local Time) from KDYA Reporting Station
Overcast Overcast  
Wind Chill: 58°   Ceiling: 1200
Heat Index: 58°   Visibility: 10mi
Dew Point: 58°   Wind: 3mph
Humidity: 100%   Direction: 80°E
Pressure: 29.91"   Gusts: NA
Location:  32.25°N, 87.95°W
Report Text: KDYA 230835Z AUTO 08003KT 10SM OVC012 14/14 A2991 RMK AO2 T01420142
Loading
Personal Weather Stations






























Interactive Weather Map New forecast layout! Learn more

10-Day Weather Forecast

Advertisements
Track Severe Weather on mobile